Terminal Aerodrome Forecast
Issued by NWS

Home | Current Version | Previous Version | Text Only | Print | Product List | Glossary On
Versions: 1 2 3 4 5 6 7 8 9 10 11 12 13 14 15 16 17 18 19 20 21 22
000
FTUS43 KPAH 151300 AAA
TAFCGI
TAF AMD
KCGI 151327Z 1513/1612 14008KT 3SM -SHRA BKN028 OVC060
     FM151445 15012KT 2SM -RA BR BKN006 OVC020
      TEMPO 1516/1519 1 1/2SM BR OVC005
     FM151900 18012G22KT 5SM BR VCSH BKN013 OVC030
     FM160100 23008KT P6SM OVC030
     FM160300 27008KT P6SM OVC015=

USA.gov is the U.S. government's official web portal to all federal, state and local government web resources and services.